createdAt,value
2019-02-12T00:00:40.522Z,21.37
2019-02-12T00:01:13.496Z,21.12
2019-02-12T00:01:46.438Z,21.20
2019-02-12T00:02:19.814Z,21.60
2019-02-12T00:02:52.838Z,21.15
2019-02-12T00:03:25.887Z,21.60
2019-02-12T00:03:58.942Z,20.88
2019-02-12T00:04:32.025Z,21.52
2019-02-12T00:05:05.215Z,21.17
2019-02-12T00:05:38.274Z,21.42
2019-02-12T00:06:11.161Z,20.97
2019-02-12T00:06:45.037Z,21.37
2019-02-12T00:07:17.953Z,21.30
2019-02-12T00:07:50.908Z,21.50
2019-02-12T00:08:23.850Z,21.48
2019-02-12T00:08:56.780Z,21.40
2019-02-12T00:09:30.877Z,21.33
2019-02-12T00:10:04.415Z,21.07
2019-02-12T00:10:37.483Z,21.40
2019-02-12T00:11:10.566Z,21.25
2019-02-12T00:11:43.662Z,21.33
2019-02-12T00:12:16.692Z,21.30
2019-02-12T00:12:49.626Z,21.35
2019-02-12T00:13:22.702Z,21.80
2019-02-12T00:13:56.899Z,21.60
2019-02-12T00:14:31.078Z,21.15
2019-02-12T00:15:04.694Z,21.48
2019-02-12T00:15:37.652Z,21.00
2019-02-12T00:16:10.716Z,21.30
2019-02-12T00:16:43.791Z,21.17
2019-02-12T00:20:19.149Z,21.40
2019-02-12T00:20:53.585Z,21.07
2019-02-12T00:21:26.542Z,21.33
2019-02-12T00:21:59.862Z,21.60
2019-02-12T00:22:32.959Z,21.12
2019-02-12T00:23:05.896Z,21.40
2019-02-12T00:23:39.059Z,21.00
2019-02-12T00:24:12.242Z,21.10
2019-02-12T00:24:45.431Z,20.90
2019-02-12T00:25:18.464Z,21.25
2019-02-12T00:25:51.549Z,21.65
2019-02-12T00:26:24.494Z,21.23
2019-02-12T00:26:57.486Z,21.15
2019-02-12T00:27:30.531Z,21.17
2019-02-12T00:28:04.040Z,21.85
2019-02-12T00:28:36.996Z,20.92
2019-02-12T00:29:10.088Z,20.97
2019-02-12T00:29:43.012Z,21.07
2019-02-12T00:30:15.997Z,21.00
2019-02-12T00:30:49.016Z,21.27
2019-02-12T00:31:21.940Z,21.10
2019-02-12T00:31:54.871Z,21.70
2019-02-12T00:33:01.409Z,21.07
2019-02-12T00:33:34.292Z,21.40
2019-02-12T00:34:07.345Z,21.60
2019-02-12T00:34:40.588Z,21.50
2019-02-12T00:35:13.620Z,21.42
2019-02-12T00:35:48.302Z,21.45
2019-02-12T00:36:22.236Z,21.10
2019-02-12T00:36:55.156Z,21.80
2019-02-12T00:37:28.296Z,21.10
2019-02-12T00:38:01.397Z,20.90
2019-02-12T00:38:34.230Z,21.20
2019-02-12T00:39:08.297Z,21.10
2019-02-12T00:39:41.236Z,20.95
2019-02-12T00:40:14.259Z,21.17
2019-02-12T00:40:47.067Z,21.40
2019-02-12T00:41:19.924Z,20.88
2019-02-12T00:41:52.739Z,21.02
2019-02-12T00:42:26.287Z,21.20
2019-02-12T00:42:59.319Z,21.27
2019-02-12T00:43:32.128Z,20.95
2019-02-12T00:44:05.087Z,21.10
2019-02-12T00:44:37.940Z,21.35
2019-02-12T00:45:10.976Z,21.07
2019-02-12T00:45:44.040Z,21.02
2019-02-12T00:46:17.065Z,20.88
2019-02-12T00:46:49.970Z,20.95
2019-02-12T00:49:50.921Z,21.15
2019-02-12T00:50:23.904Z,21.23
2019-02-12T00:50:57.017Z,21.30
2019-02-12T00:51:29.904Z,20.80
2019-02-12T00:52:03.170Z,21.45
2019-02-12T00:52:36.447Z,21.23
2019-02-12T00:53:09.366Z,20.88
2019-02-12T00:53:42.410Z,20.72
2019-02-12T00:54:15.264Z,20.77
2019-02-12T00:54:48.296Z,21.00
2019-02-12T00:55:21.320Z,21.12
2019-02-12T00:55:54.260Z,21.00
2019-02-12T00:56:27.202Z,21.23
2019-02-12T00:57:00.102Z,21.15
2019-02-12T00:57:33.156Z,21.15
2019-02-12T00:58:05.951Z,20.90
2019-02-12T00:58:38.878Z,21.07
2019-02-12T00:59:11.777Z,21.07
2019-02-12T00:59:44.734Z,21.00
2019-02-12T01:00:17.734Z,20.75
2019-02-12T01:00:50.755Z,21.50
2019-02-12T01:01:23.651Z,20.68
2019-02-12T01:01:56.361Z,20.70
2019-02-12T01:02:29.363Z,20.55
2019-02-12T01:03:02.503Z,20.50
2019-02-12T01:03:35.404Z,21.00
2019-02-12T01:04:08.394Z,21.05
2019-02-12T01:04:41.378Z,21.37
2019-02-12T01:05:14.508Z,20.75
2019-02-12T01:05:47.594Z,20.88
2019-02-12T01:06:20.593Z,20.80
2019-02-12T01:06:53.591Z,20.77
2019-02-12T01:07:26.520Z,21.05
2019-02-12T01:07:59.440Z,21.02
2019-02-12T01:08:32.617Z,21.10
2019-02-12T01:09:05.627Z,20.80
2019-02-12T01:09:39.738Z,20.95
2019-02-12T01:10:12.849Z,20.97
2019-02-12T01:10:45.909Z,21.17
2019-02-12T01:11:18.907Z,21.05
2019-02-12T01:11:51.951Z,20.95
2019-02-12T01:12:24.869Z,21.30
2019-02-12T01:12:57.911Z,20.90
2019-02-12T01:13:30.923Z,20.90
2019-02-12T01:14:04.677Z,20.65
2019-02-12T01:14:37.605Z,20.85
2019-02-12T01:15:11.729Z,21.07
2019-02-12T01:15:44.731Z,20.92
2019-02-12T01:16:18.098Z,21.00
2019-02-12T01:16:51.161Z,21.17
2019-02-12T01:17:24.179Z,21.00
2019-02-12T01:19:39.925Z,20.52
2019-02-12T01:20:13.066Z,20.85
2019-02-12T01:20:45.990Z,20.95
2019-02-12T01:21:26.006Z,20.55
2019-02-12T01:21:53.993Z,20.55
2019-02-12T01:22:26.930Z,20.75
2019-02-12T01:22:59.881Z,21.10
2019-02-12T01:23:33.015Z,21.00
2019-02-12T01:24:05.941Z,20.80
2019-02-12T01:24:39.029Z,20.72
2019-02-12T01:25:13.749Z,21.00
2019-02-12T01:25:46.654Z,20.85
2019-02-12T01:26:19.714Z,20.85
2019-02-12T01:26:52.732Z,20.92
2019-02-12T01:27:25.864Z,21.10
2019-02-12T01:27:58.745Z,20.62
2019-02-12T01:28:31.599Z,20.85
2019-02-12T01:29:04.589Z,20.43
2019-02-12T01:29:37.437Z,20.90
2019-02-12T01:30:14.181Z,21.12
2019-02-12T01:30:48.865Z,21.00
2019-02-12T01:31:21.773Z,21.10
2019-02-12T01:31:54.786Z,20.43
2019-02-12T01:32:27.695Z,20.77
2019-02-12T01:34:43.402Z,20.65
2019-02-12T01:35:16.395Z,20.92
2019-02-12T01:35:49.381Z,20.82
2019-02-12T01:36:22.315Z,20.90
2019-02-12T01:36:55.249Z,20.80
2019-02-12T01:37:28.311Z,21.10
2019-02-12T01:38:01.448Z,20.70
2019-02-12T01:38:34.267Z,21.37
2019-02-12T01:39:10.630Z,21.30
2019-02-12T01:39:43.453Z,21.30
2019-02-12T01:40:16.549Z,20.80
2019-02-12T01:40:49.470Z,21.12
2019-02-12T01:41:22.419Z,20.95
2019-02-12T01:41:55.364Z,20.77
2019-02-12T01:42:28.231Z,21.07
2019-02-12T01:43:01.250Z,20.95
2019-02-12T01:43:34.262Z,20.60
2019-02-12T01:44:07.267Z,20.70
2019-02-12T01:44:40.357Z,20.85
2019-02-12T01:45:13.441Z,21.35
2019-02-12T01:45:47.617Z,20.80
2019-02-12T01:46:20.629Z,20.85
2019-02-12T01:46:53.635Z,20.70
2019-02-12T01:47:26.445Z,20.80
2019-02-12T01:49:41.677Z,20.70
2019-02-12T01:50:14.567Z,20.75
2019-02-12T01:50:47.526Z,20.48
2019-02-12T01:51:20.440Z,20.90
2019-02-12T01:51:53.391Z,21.23
2019-02-12T01:52:26.306Z,20.57
2019-02-12T01:52:59.255Z,20.90
2019-02-12T01:53:32.079Z,20.82
2019-02-12T01:54:05.038Z,21.00
2019-02-12T01:54:37.901Z,20.90
2019-02-12T01:55:11.040Z,20.92
2019-02-12T01:55:43.823Z,20.92
2019-02-12T01:56:16.682Z,21.73
2019-02-12T01:56:49.673Z,21.10
2019-02-12T01:57:22.687Z,21.00
2019-02-12T01:57:55.478Z,21.20
2019-02-12T01:58:28.493Z,21.15
2019-02-12T01:59:01.403Z,21.62
2019-02-12T01:59:34.237Z,21.10
2019-02-12T02:00:10.701Z,21.15
2019-02-12T02:00:43.756Z,21.25
2019-02-12T02:01:17.975Z,21.10
2019-02-12T02:01:51.048Z,21.02
2019-02-12T02:02:25.053Z,21.00
2019-02-12T02:04:40.362Z,21.60
2019-02-12T02:05:13.345Z,21.27
2019-02-12T02:05:46.388Z,21.25
2019-02-12T02:06:19.270Z,21.00
2019-02-12T02:06:53.748Z,21.68
2019-02-12T02:07:26.646Z,21.07
2019-02-12T02:07:59.697Z,20.90
2019-02-12T02:08:32.510Z,20.97
2019-02-12T02:09:05.970Z,21.00
2019-02-12T02:09:38.889Z,21.00
2019-02-12T02:10:15.518Z,20.80
2019-02-12T02:10:48.406Z,21.20
2019-02-12T02:11:21.470Z,21.40
2019-02-12T02:11:54.457Z,21.50
2019-02-12T02:12:27.544Z,20.90
2019-02-12T02:13:00.426Z,21.37
2019-02-12T02:13:33.364Z,21.25
2019-02-12T02:14:06.522Z,21.08
2019-02-12T02:14:39.588Z,21.12
2019-02-12T02:15:12.953Z,21.20
2019-02-12T02:15:47.005Z,20.68
2019-02-12T02:16:19.950Z,21.60
2019-02-12T02:16:53.025Z,21.68
2019-02-12T02:17:26.098Z,20.50
2019-02-12T02:19:26.794Z,21.20
2019-02-12T02:20:00.648Z,21.23
2019-02-12T02:20:33.752Z,21.35
2019-02-12T02:21:06.919Z,21.37
2019-02-12T02:21:44.148Z,21.15
2019-02-12T02:22:14.943Z,21.45
2019-02-12T02:22:47.990Z,21.00
2019-02-12T02:23:20.842Z,20.70
2019-02-12T02:23:53.809Z,21.00
2019-02-12T02:24:26.722Z,21.23
2019-02-12T02:24:59.609Z,21.10
2019-02-12T02:25:34.135Z,20.95
2019-02-12T02:26:07.172Z,20.80
2019-02-12T02:26:40.370Z,21.48
2019-02-12T02:27:13.325Z,21.17
2019-02-12T02:27:46.559Z,21.37
2019-02-12T02:28:19.416Z,21.15
2019-02-12T02:28:52.380Z,21.35
2019-02-12T02:29:26.149Z,21.12
2019-02-12T02:30:00.405Z,21.05
2019-02-12T02:30:33.329Z,20.70
2019-02-12T02:31:06.355Z,21.05
2019-02-12T02:31:39.247Z,21.27
2019-02-12T02:32:12.499Z,21.05
2019-02-12T02:32:45.403Z,21.40
2019-02-12T02:34:06.689Z,21.15
2019-02-12T02:34:39.988Z,20.85
2019-02-12T02:35:13.002Z,21.02
2019-02-12T02:35:45.901Z,22.00
2019-02-12T02:36:18.718Z,20.92
2019-02-12T02:36:51.529Z,21.27
2019-02-12T02:37:24.483Z,21.45
2019-02-12T02:37:57.387Z,21.42
2019-02-12T02:38:30.404Z,21.10
2019-02-12T02:39:04.546Z,21.30
2019-02-12T02:39:39.416Z,21.60
2019-02-12T02:40:12.541Z,20.90
2019-02-12T02:40:45.476Z,21.25
2019-02-12T02:41:18.433Z,21.60
2019-02-12T02:41:51.450Z,21.35
2019-02-12T02:42:24.349Z,21.35
2019-02-12T02:42:57.190Z,21.30
2019-02-12T02:43:30.108Z,21.17
2019-02-12T02:44:03.241Z,20.85
2019-02-12T02:44:36.190Z,21.35
2019-02-12T02:45:10.477Z,22.02
2019-02-12T02:45:43.383Z,21.10
2019-02-12T02:46:16.399Z,21.25
2019-02-12T02:46:49.412Z,21.37
2019-02-12T02:47:22.320Z,21.50
2019-02-12T02:47:55.322Z,21.45
2019-02-12T02:48:46.497Z,21.37
2019-02-12T02:49:20.394Z,21.33
2019-02-12T02:49:53.536Z,21.12
2019-02-12T02:50:26.436Z,21.20
2019-02-12T02:50:59.361Z,21.15
2019-02-12T02:51:32.250Z,20.90
2019-02-12T02:52:05.294Z,21.07
2019-02-12T02:52:38.326Z,21.37
2019-02-12T02:53:11.238Z,21.40
2019-02-12T02:53:44.160Z,21.02
2019-02-12T02:54:17.132Z,21.62
2019-02-12T02:54:51.655Z,21.45
2019-02-12T02:55:24.596Z,21.45
2019-02-12T02:55:57.390Z,21.23
2019-02-12T02:56:30.321Z,21.80
2019-02-12T02:57:03.296Z,21.15
2019-02-12T02:57:36.289Z,21.73
2019-02-12T02:58:09.230Z,20.88
2019-02-12T02:58:42.300Z,21.57
2019-02-12T02:59:15.330Z,21.25
2019-02-12T02:59:48.357Z,21.02
2019-02-12T03:00:21.355Z,21.23
2019-02-12T03:00:54.614Z,21.10
2019-02-12T03:01:28.559Z,21.10
2019-02-12T03:02:02.788Z,21.30
2019-02-12T03:02:35.839Z,21.45
2019-02-12T03:03:24.964Z,21.33
2019-02-12T03:03:57.980Z,21.60
2019-02-12T03:04:30.941Z,21.50
2019-02-12T03:05:05.388Z,21.95
2019-02-12T03:05:38.341Z,21.33
2019-02-12T03:06:11.433Z,21.70
2019-02-12T03:06:44.608Z,21.35
2019-02-12T03:07:17.698Z,21.35
2019-02-12T03:07:50.719Z,21.15
2019-02-12T03:08:23.649Z,20.92
2019-02-12T03:08:56.826Z,21.17
2019-02-12T03:09:29.783Z,21.55
2019-02-12T03:10:03.328Z,21.37
2019-02-12T03:10:36.200Z,21.30
2019-02-12T03:11:09.168Z,21.42
2019-02-12T03:11:42.210Z,21.25
2019-02-12T03:12:16.161Z,21.60
2019-02-12T03:12:49.232Z,21.02
2019-02-12T03:13:22.205Z,21.05
2019-02-12T03:13:55.260Z,21.05
2019-02-12T03:14:28.287Z,21.85
2019-02-12T03:15:01.548Z,21.35
2019-02-12T03:15:34.565Z,21.60
2019-02-12T03:16:07.523Z,21.20
2019-02-12T03:16:40.372Z,21.70
2019-02-12T03:17:13.890Z,21.70
2019-02-12T03:17:46.818Z,21.57
2019-02-12T03:18:19.801Z,21.90
2019-02-12T03:18:52.898Z,21.07
2019-02-12T03:19:26.564Z,21.73
2019-02-12T03:19:59.413Z,21.65
2019-02-12T03:20:32.448Z,21.60
2019-02-12T03:21:05.480Z,21.30
2019-02-12T03:21:38.929Z,21.50
2019-02-12T03:22:13.355Z,21.50
2019-02-12T03:22:46.430Z,21.52
2019-02-12T03:23:19.322Z,21.37
2019-02-12T03:23:52.143Z,21.42
2019-02-12T03:24:24.960Z,21.30
2019-02-12T03:24:57.855Z,21.42
2019-02-12T03:25:30.778Z,21.37
2019-02-12T03:26:03.807Z,21.80
2019-02-12T03:26:36.817Z,21.73
2019-02-12T03:27:09.793Z,21.75
2019-02-12T03:27:42.716Z,21.27
2019-02-12T03:28:15.536Z,21.87
2019-02-12T03:28:48.544Z,21.87
2019-02-12T03:29:21.466Z,22.02
2019-02-12T03:29:54.394Z,22.10
2019-02-12T03:30:27.433Z,21.65
2019-02-12T03:31:00.440Z,21.70
2019-02-12T03:31:33.347Z,21.70
2019-02-12T03:32:06.323Z,21.52
2019-02-12T03:32:39.421Z,21.60
2019-02-12T03:33:12.454Z,21.73
2019-02-12T03:37:48.744Z,21.55
2019-02-12T03:38:21.692Z,21.50
2019-02-12T03:38:54.605Z,21.35
2019-02-12T03:39:27.457Z,21.40
2019-02-12T03:40:00.430Z,21.77
2019-02-12T03:40:33.472Z,21.60
2019-02-12T03:41:06.440Z,21.23
2019-02-12T03:41:39.410Z,21.60
2019-02-12T03:42:12.598Z,21.60
2019-02-12T03:42:45.551Z,21.40
2019-02-12T03:43:18.632Z,21.55
2019-02-12T03:43:51.598Z,21.50
2019-02-12T03:44:24.811Z,21.50
2019-02-12T03:44:57.768Z,21.73
2019-02-12T03:45:30.741Z,21.95
2019-02-12T03:46:03.795Z,22.07
2019-02-12T03:46:36.935Z,22.05
2019-02-12T03:47:09.993Z,22.02
2019-02-12T03:47:42.928Z,21.40
2019-02-12T03:48:15.897Z,21.50
2019-02-12T03:48:48.718Z,21.90
2019-02-12T03:49:22.004Z,21.87
2019-02-12T03:49:55.107Z,21.50
2019-02-12T03:50:28.509Z,21.50
2019-02-12T03:51:01.424Z,21.68
2019-02-12T03:51:34.489Z,22.20
2019-02-12T03:52:13.057Z,22.17
2019-02-12T03:52:42.399Z,21.95
2019-02-12T03:53:15.457Z,22.10
2019-02-12T03:53:48.264Z,21.90
2019-02-12T03:54:21.203Z,21.70
2019-02-12T03:54:54.196Z,21.70
2019-02-12T03:55:27.238Z,21.87
2019-02-12T03:56:00.431Z,21.68
2019-02-12T03:56:33.471Z,21.60
2019-02-12T03:57:08.010Z,21.65
2019-02-12T03:57:41.663Z,21.70
2019-02-12T03:58:14.885Z,21.82
2019-02-12T03:58:48.123Z,21.62
2019-02-12T03:59:21.109Z,21.62
2019-02-12T03:59:54.166Z,22.00
2019-02-12T04:00:27.161Z,21.97
2019-02-12T04:01:00.192Z,22.10
2019-02-12T04:01:33.214Z,21.77
2019-02-12T04:02:06.344Z,21.80
2019-02-12T04:03:01.750Z,22.05
2019-02-12T04:07:15.483Z,21.95
2019-02-12T04:07:48.436Z,21.85
2019-02-12T04:08:21.371Z,22.00
2019-02-12T04:08:54.333Z,21.23
2019-02-12T04:09:27.275Z,21.50
2019-02-12T04:10:00.351Z,21.50
2019-02-12T04:10:33.795Z,21.82
2019-02-12T04:11:06.737Z,21.48
2019-02-12T04:11:39.725Z,21.65
2019-02-12T04:12:12.763Z,21.60
2019-02-12T04:12:45.777Z,22.10
2019-02-12T04:13:18.935Z,21.60
2019-02-12T04:13:51.905Z,21.65
2019-02-12T04:14:25.085Z,22.20
2019-02-12T04:14:57.994Z,21.40
2019-02-12T04:15:31.033Z,21.80
2019-02-12T04:16:04.038Z,21.62
2019-02-12T04:16:37.124Z,22.20
2019-02-12T04:17:10.133Z,22.13
2019-02-12T04:17:42.963Z,21.80
2019-02-12T04:18:15.811Z,21.85
2019-02-12T04:18:48.640Z,21.87
2019-02-12T04:19:21.571Z,21.75
2019-02-12T04:19:54.544Z,22.30
2019-02-12T04:20:27.690Z,22.13
2019-02-12T04:21:00.756Z,21.90
2019-02-12T04:21:33.636Z,22.02
2019-02-12T04:22:06.773Z,22.27
2019-02-12T04:22:39.625Z,21.90
2019-02-12T04:23:12.527Z,22.00
2019-02-12T04:23:45.450Z,22.00
2019-02-12T04:24:18.392Z,21.90
2019-02-12T04:24:51.305Z,22.00
2019-02-12T04:25:25.878Z,21.95
2019-02-12T04:25:58.791Z,21.82
2019-02-12T04:26:31.789Z,21.62
2019-02-12T04:27:04.809Z,22.13
2019-02-12T04:27:37.843Z,22.20
2019-02-12T04:28:10.749Z,21.95
2019-02-12T04:28:43.715Z,21.60
2019-02-12T04:29:16.613Z,21.60
2019-02-12T04:29:49.434Z,22.17
2019-02-12T04:30:22.359Z,21.73
2019-02-12T04:30:55.503Z,21.85
2019-02-12T04:31:28.401Z,21.85
2019-02-12T04:32:01.341Z,21.97
2019-02-12T04:32:34.234Z,21.70
2019-02-12T04:33:08.282Z,21.80
2019-02-12T04:33:41.173Z,21.25
2019-02-12T04:34:14.033Z,22.20
2019-02-12T04:34:46.842Z,21.65
2019-02-12T04:35:19.999Z,21.87
2019-02-12T04:35:52.777Z,21.40
2019-02-12T04:36:25.902Z,21.68
2019-02-12T04:36:58.693Z,22.20
2019-02-12T04:37:31.537Z,22.00
2019-02-12T04:38:04.538Z,22.10
2019-02-12T04:38:38.418Z,21.87
2019-02-12T04:39:11.225Z,22.30
2019-02-12T04:39:44.266Z,22.13
2019-02-12T04:40:17.355Z,22.00
2019-02-12T04:40:50.345Z,22.02
2019-02-12T04:41:23.241Z,22.00
2019-02-12T04:41:56.797Z,21.55
2019-02-12T04:42:29.724Z,22.00
2019-02-12T04:43:02.746Z,21.87
2019-02-12T04:43:35.531Z,21.87
2019-02-12T04:44:08.501Z,21.87
2019-02-12T04:44:41.397Z,21.55
2019-02-12T04:45:14.449Z,21.87
2019-02-12T04:45:47.484Z,22.20
2019-02-12T04:46:20.384Z,21.68
2019-02-12T04:46:53.387Z,22.10
2019-02-12T04:47:26.444Z,22.35
2019-02-12T04:47:59.238Z,21.85
2019-02-12T04:51:57.379Z,21.93
2019-02-12T04:52:31.960Z,22.30
2019-02-12T04:53:05.227Z,22.32
2019-02-12T04:53:38.143Z,22.15
2019-02-12T04:54:11.187Z,22.00
2019-02-12T04:54:44.082Z,22.35
2019-02-12T04:55:17.143Z,22.13
2019-02-12T04:55:50.169Z,21.95
2019-02-12T04:56:23.213Z,22.20
2019-02-12T04:56:56.118Z,22.27
2019-02-12T04:57:29.092Z,22.52
2019-02-12T04:58:02.085Z,21.70
2019-02-12T04:58:35.039Z,21.85
2019-02-12T04:59:07.911Z,22.22
2019-02-12T04:59:40.915Z,22.15
2019-02-12T05:00:14.841Z,21.87
2019-02-12T05:00:48.266Z,22.55
2019-02-12T05:01:21.265Z,22.10
2019-02-12T05:01:54.213Z,22.35
2019-02-12T05:02:27.109Z,21.70
2019-02-12T05:03:00.065Z,22.77
2019-02-12T05:03:32.953Z,22.30
2019-02-12T05:06:31.274Z,21.75
2019-02-12T05:07:04.171Z,22.20
2019-02-12T05:07:37.095Z,21.87
2019-02-12T05:08:10.157Z,21.90
2019-02-12T05:09:18.822Z,21.95
2019-02-12T05:09:53.524Z,22.10
2019-02-12T05:10:29.900Z,22.20
2019-02-12T05:11:02.991Z,21.97
2019-02-12T05:11:35.955Z,22.42
2019-02-12T05:12:08.917Z,22.42
2019-02-12T05:12:41.838Z,21.75
2019-02-12T05:13:14.809Z,22.27
2019-02-12T05:13:47.810Z,21.95
2019-02-12T05:14:20.848Z,21.90
2019-02-12T05:14:53.730Z,22.27
2019-02-12T05:15:26.738Z,22.15
2019-02-12T05:15:59.746Z,22.70
2019-02-12T05:16:32.673Z,22.13
2019-02-12T05:17:05.695Z,21.75
2019-02-12T05:17:40.003Z,22.15
2019-02-12T05:18:12.905Z,21.97
2019-02-12T05:21:31.801Z,21.70
2019-02-12T05:22:04.989Z,22.30
2019-02-12T05:22:43.681Z,21.95
2019-02-12T05:23:12.751Z,22.22
2019-02-12T05:23:45.742Z,21.68
2019-02-12T05:24:18.682Z,22.05
2019-02-12T05:24:52.568Z,21.80
2019-02-12T05:25:25.528Z,22.32
2019-02-12T05:25:59.672Z,21.55
2019-02-12T05:26:32.606Z,22.07
2019-02-12T05:27:05.566Z,22.00
2019-02-12T05:27:38.639Z,22.07
2019-02-12T05:28:11.627Z,21.70
2019-02-12T05:28:44.520Z,22.50
2019-02-12T05:29:18.317Z,21.85
2019-02-12T05:29:51.637Z,22.00
2019-02-12T05:30:24.545Z,22.22
2019-02-12T05:30:58.533Z,21.97
2019-02-12T05:31:31.515Z,22.00
2019-02-12T05:32:05.414Z,22.42
2019-02-12T05:32:38.378Z,22.20
2019-02-12T05:33:11.155Z,22.05
2019-02-12T05:35:40.884Z,22.20
2019-02-12T05:36:13.762Z,22.10
2019-02-12T05:36:46.826Z,21.73
2019-02-12T05:37:19.821Z,21.87
2019-02-12T05:37:52.858Z,22.20
2019-02-12T05:38:25.736Z,22.07
2019-02-12T05:38:58.731Z,21.80
2019-02-12T05:39:31.636Z,21.90
2019-02-12T05:40:06.438Z,22.90
2019-02-12T05:40:39.347Z,22.52
2019-02-12T05:41:12.352Z,22.22
2019-02-12T05:41:45.255Z,22.58
2019-02-12T05:42:18.300Z,22.00
2019-02-12T05:42:51.281Z,22.30
2019-02-12T05:43:24.165Z,22.10
2019-02-12T05:43:56.997Z,22.10
2019-02-12T05:44:29.876Z,22.07
2019-02-12T05:45:03.929Z,22.40
2019-02-12T05:45:37.897Z,22.17
2019-02-12T05:46:10.794Z,22.20
2019-02-12T05:46:43.610Z,22.27
2019-02-12T05:47:16.561Z,22.15
2019-02-12T05:47:49.440Z,21.90
2019-02-12T05:48:22.330Z,22.60
2019-02-12T05:50:51.936Z,21.82
2019-02-12T05:51:24.835Z,21.90
2019-02-12T05:51:57.778Z,22.13
2019-02-12T05:52:30.692Z,22.45
2019-02-12T05:53:03.709Z,21.80
2019-02-12T05:53:36.613Z,22.13
2019-02-12T05:54:09.435Z,22.10
2019-02-12T05:54:42.320Z,22.60
2019-02-12T05:55:15.228Z,22.27
2019-02-12T05:55:48.231Z,21.80
2019-02-12T05:56:21.121Z,22.15
2019-02-12T05:56:54.052Z,22.17
2019-02-12T05:57:26.946Z,22.37
2019-02-12T05:58:01.775Z,22.40
2019-02-12T05:58:34.674Z,22.10
2019-02-12T05:59:07.578Z,22.07
2019-02-12T05:59:40.431Z,22.02
2019-02-12T06:00:16.083Z,22.17
2019-02-12T06:00:49.075Z,21.90
2019-02-12T06:01:21.990Z,22.13
2019-02-12T06:01:54.813Z,22.10
2019-02-12T06:02:27.783Z,22.05
2019-02-12T06:03:00.892Z,22.00
2019-02-12T06:03:33.800Z,22.07
2019-02-12T06:04:55.934Z,21.97
2019-02-12T06:05:29.030Z,21.80
2019-02-12T06:06:02.157Z,21.75
2019-02-12T06:06:35.134Z,22.48
2019-02-12T06:07:08.031Z,22.05
2019-02-12T06:07:41.032Z,22.27
2019-02-12T06:08:13.952Z,21.90
2019-02-12T06:08:46.817Z,21.95
2019-02-12T06:09:19.639Z,22.10
2019-02-12T06:09:52.531Z,22.13
2019-02-12T06:10:25.516Z,21.87
2019-02-12T06:10:58.538Z,21.97
2019-02-12T06:11:31.487Z,22.07
2019-02-12T06:12:04.492Z,22.30
2019-02-12T06:12:37.421Z,22.30
2019-02-12T06:13:10.337Z,22.07
2019-02-12T06:13:43.270Z,23.02
2019-02-12T06:14:16.291Z,22.93
2019-02-12T06:14:49.199Z,22.37
2019-02-12T06:15:22.327Z,22.50
2019-02-12T06:15:55.270Z,21.85
2019-02-12T06:16:28.070Z,22.30
2019-02-12T06:17:00.971Z,22.40
2019-02-12T06:17:34.000Z,22.27
2019-02-12T06:18:08.437Z,22.48
2019-02-12T06:18:41.346Z,21.73
2019-02-12T06:19:14.360Z,22.02
2019-02-12T06:19:47.187Z,21.85
2019-02-12T06:20:20.299Z,22.55
2019-02-12T06:20:53.114Z,22.07
2019-02-12T06:21:26.166Z,22.20
2019-02-12T06:21:59.109Z,22.22
2019-02-12T06:22:32.105Z,22.32
2019-02-12T06:23:05.138Z,22.40
2019-02-12T06:23:39.441Z,22.48
2019-02-12T06:24:12.586Z,21.80
2019-02-12T06:24:45.715Z,22.60
2019-02-12T06:25:18.624Z,22.32
2019-02-12T06:25:51.493Z,22.30
2019-02-12T06:26:24.533Z,22.22
2019-02-12T06:26:57.546Z,22.30
2019-02-12T06:27:30.521Z,22.37
2019-02-12T06:28:03.696Z,22.13
2019-02-12T06:28:36.699Z,22.93
2019-02-12T06:29:09.605Z,22.45
2019-02-12T06:29:42.619Z,22.17
2019-02-12T06:30:15.658Z,22.73
2019-02-12T06:30:48.624Z,22.30
2019-02-12T06:31:21.864Z,21.95
2019-02-12T06:31:55.857Z,22.13
2019-02-12T06:32:28.717Z,22.17
2019-02-12T06:33:07.544Z,22.07
2019-02-12T06:33:36.567Z,22.27
2019-02-12T06:34:22.967Z,22.13
2019-02-12T06:34:56.006Z,22.70
2019-02-12T06:35:28.965Z,22.02
2019-02-12T06:36:02.133Z,22.35
2019-02-12T06:36:35.077Z,22.30
2019-02-12T06:37:09.515Z,22.30
2019-02-12T06:37:42.481Z,22.52
2019-02-12T06:38:16.257Z,22.07
2019-02-12T06:38:49.316Z,22.17
2019-02-12T06:39:22.476Z,22.22
2019-02-12T06:39:55.436Z,22.35
2019-02-12T06:40:28.656Z,21.87
2019-02-12T06:41:01.755Z,22.45
2019-02-12T06:41:34.751Z,22.27
2019-02-12T06:42:07.779Z,22.70
2019-02-12T06:42:40.917Z,21.70
2019-02-12T06:43:14.047Z,22.55
2019-02-12T06:43:46.908Z,22.10
2019-02-12T06:44:21.521Z,22.67
2019-02-12T06:44:54.479Z,22.50
2019-02-12T06:45:27.456Z,22.25
2019-02-12T06:46:00.491Z,22.45
2019-02-12T06:46:33.455Z,22.10
2019-02-12T06:47:06.328Z,22.35
2019-02-12T06:47:39.269Z,22.62
2019-02-12T06:48:12.318Z,22.60
2019-02-12T06:48:45.272Z,22.22
2019-02-12T06:49:18.297Z,22.48
2019-02-12T06:49:51.285Z,22.37
2019-02-12T06:50:24.249Z,22.52
2019-02-12T06:50:57.081Z,22.73
2019-02-12T06:51:30.003Z,22.07
2019-02-12T06:52:03.193Z,22.40
2019-02-12T06:52:36.144Z,22.20
2019-02-12T06:53:12.470Z,22.30
2019-02-12T06:53:44.079Z,22.30
2019-02-12T06:54:18.117Z,23.07
2019-02-12T06:54:51.465Z,22.30
2019-02-12T06:55:24.400Z,22.40
2019-02-12T06:55:57.363Z,22.32
2019-02-12T06:56:30.217Z,22.65
2019-02-12T06:57:03.302Z,22.37
2019-02-12T06:57:36.930Z,22.22
2019-02-12T06:58:09.876Z,22.52
2019-02-12T06:58:42.709Z,22.48
2019-02-12T06:59:17.164Z,22.80
2019-02-12T06:59:51.713Z,22.55
2019-02-12T07:00:25.865Z,21.95
2019-02-12T07:00:58.803Z,22.35
2019-02-12T07:01:33.502Z,22.48
2019-02-12T07:03:03.547Z,22.32
2019-02-12T07:04:01.847Z,22.50
2019-02-12T07:04:34.831Z,22.82
2019-02-12T07:05:07.877Z,22.60
2019-02-12T07:06:31.233Z,22.73
2019-02-12T07:08:12.457Z,22.48
2019-02-12T07:09:31.342Z,22.22
2019-02-12T07:10:29.915Z,23.22
2019-02-12T07:11:22.736Z,22.93
2019-02-12T07:12:43.768Z,22.45
2019-02-12T07:13:53.258Z,22.37
2019-02-12T07:15:04.211Z,22.58
2019-02-12T07:16:11.537Z,22.45
2019-02-12T07:17:49.411Z,22.20
2019-02-12T07:23:04.091Z,22.40
2019-02-12T07:24:38.392Z,22.22
2019-02-12T07:25:58.080Z,22.40
2019-02-12T07:27:17.659Z,22.85
2019-02-12T07:28:19.081Z,22.10
2019-02-12T07:29:40.991Z,22.50
2019-02-12T07:31:09.560Z,22.50
2019-02-12T07:32:49.704Z,22.80
2019-02-12T07:39:04.112Z,23.05
2019-02-12T07:40:18.735Z,22.05
2019-02-12T07:41:55.024Z,22.98
2019-02-12T07:43:34.388Z,23.55
2019-02-12T07:46:01.698Z,22.22
2019-02-12T07:47:29.867Z,22.73
2019-02-12T07:48:45.712Z,23.15
2019-02-12T07:50:43.938Z,22.48
2019-02-12T07:52:08.619Z,22.50
2019-02-12T07:52:58.568Z,22.77
2019-02-12T07:54:09.631Z,22.50
2019-02-12T07:55:48.198Z,22.95
2019-02-12T07:57:16.293Z,22.90
2019-02-12T07:58:39.168Z,22.75
2019-02-12T07:59:44.109Z,22.62
2019-02-12T08:00:51.422Z,22.65
2019-02-12T08:02:36.442Z,22.40
2019-02-12T08:04:37.981Z,22.30
2019-02-12T08:05:36.679Z,22.62
2019-02-12T08:06:24.964Z,22.98
2019-02-12T08:07:28.946Z,22.48
2019-02-12T08:08:28.431Z,23.12
2019-02-12T08:10:09.584Z,22.90
2019-02-12T08:11:53.380Z,23.18
2019-02-12T08:13:21.516Z,23.60
2019-02-12T08:14:34.041Z,23.10
2019-02-12T08:15:34.860Z,22.80
2019-02-12T08:16:47.381Z,23.25
2019-02-12T08:18:22.968Z,23.27
2019-02-12T08:19:30.494Z,23.65
2019-02-12T08:21:09.923Z,23.60
2019-02-12T08:22:31.547Z,23.45
2019-02-12T08:23:48.753Z,23.62
2019-02-12T08:25:12.426Z,24.87
2019-02-12T08:26:30.493Z,24.92
2019-02-12T08:27:39.610Z,24.67
2019-02-12T08:29:35.220Z,24.05
2019-02-12T08:30:51.140Z,23.83
2019-02-12T08:32:31.563Z,23.90
2019-02-12T08:33:57.818Z,23.98
2019-02-12T08:35:05.356Z,23.73
2019-02-12T08:35:57.396Z,24.05
2019-02-12T08:37:11.223Z,23.87
2019-02-12T08:38:17.887Z,23.65
2019-02-12T08:39:44.603Z,23.90
2019-02-12T08:41:01.984Z,25.02
2019-02-12T08:42:20.511Z,23.77
2019-02-12T08:43:26.417Z,23.95
2019-02-12T08:44:35.226Z,24.85
2019-02-12T08:45:57.898Z,24.37
2019-02-12T08:47:21.646Z,24.52
2019-02-12T08:49:01.667Z,24.87
2019-02-12T08:50:07.152Z,25.05
2019-02-12T08:51:03.349Z,25.05
2019-02-12T08:52:36.750Z,25.00
2019-02-12T08:54:04.031Z,24.60
2019-02-12T08:55:18.206Z,25.35